Time;durP1;ratioP1;P1;durP2;ratioP2;P2;SDS_P1;SDS_P2;PMS_P1;PMS_P2;Temp;Humidity;BMP_temperature;BMP_pressure;BME280_temperature;BME280_humidity;BME280_pressure;Samples;Min_cycle;Max_cycle;Signal;HPM_P1;HPM_P2
2021/12/30 00:01:24;;;;;;;0.37;0.37;;;;;;;;;;5053402;28;20401;-65
2021/12/30 00:03:50;;;;;;;0.73;0.73;;;;;;;;;;5053401;28;20868;-65
2021/12/30 00:06:18;;;;;;;0.40;0.40;;;;;;;;;;5053362;28;20403;-66
2021/12/30 00:08:44;;;;;;;0.43;0.43;;;;;;;;;;5053249;28;20428;-65
2021/12/30 00:11:10;;;;;;;0.47;0.47;;;;;;;;;;5053038;28;20563;-66
2021/12/30 00:13:39;;;;;;;0.50;0.50;;;;;;;;;;5053193;28;20448;-66
2021/12/30 00:16:05;;;;;;;1.37;0.53;;;;;;;;;;5053090;28;20883;-64
2021/12/30 00:18:31;;;;;;;0.50;0.50;;;;;;;;;;5053188;28;20410;-68
2021/12/30 00:20:57;;;;;;;0.50;0.50;;;;;;;;;;5053132;28;20453;-64
2021/12/30 00:23:23;;;;;;;0.40;0.40;;;;;;;;;;5053132;28;20424;-66
2021/12/30 00:25:49;;;;;;;1.03;0.50;;;;;;;;;;5053175;28;20401;-65
2021/12/30 00:28:20;;;;;;;1.80;0.53;;;;;;;;;;5053062;28;20411;-64
2021/12/30 00:30:46;;;;;;;0.40;0.40;;;;;;;;;;5052970;28;20474;-67
2021/12/30 00:33:13;;;;;;;0.70;0.70;;;;;;;;;;5053048;28;20401;-66
2021/12/30 00:35:39;;;;;;;1.13;0.40;;;;;;;;;;5053062;28;20456;-67
2021/12/30 00:38:05;;;;;;;0.77;0.60;;;;;;;;;;5053034;28;20864;-66
2021/12/30 00:40:32;;;;;;;4.40;0.60;;;;;;;;;;5052971;28;20411;-65
2021/12/30 00:42:59;;;;;;;0.50;0.50;;;;;;;;;;5052924;28;20429;-64
2021/12/30 00:45:26;;;;;;;1.63;0.67;;;;;;;;;;5052889;28;20416;-66
2021/12/30 00:47:52;;;;;;;1.07;0.60;;;;;;;;;;5052947;28;20396;-67
2021/12/30 00:50:19;;;;;;;3.30;0.57;;;;;;;;;;5052896;28;20472;-66
2021/12/30 00:52:45;;;;;;;0.70;0.70;;;;;;;;;;5052896;28;20466;-64
2021/12/30 00:55:11;;;;;;;0.53;0.53;;;;;;;;;;5053178;28;20412;-63
2021/12/30 00:57:37;;;;;;;0.70;0.70;;;;;;;;;;5052921;28;20787;-64
2021/12/30 01:00:07;;;;;;;0.60;0.50;;;;;;;;;;5052693;28;20410;-65
2021/12/30 01:02:33;;;;;;;1.17;0.63;;;;;;;;;;5055155;28;20406;-67
2021/12/30 01:04:59;;;;;;;0.60;0.60;;;;;;;;;;5056616;28;20507;-66
2021/12/30 01:07:25;;;;;;;0.80;0.80;;;;;;;;;;5056567;28;20436;-64
2021/12/30 01:09:51;;;;;;;2.73;0.60;;;;;;;;;;5056657;28;20455;-65
2021/12/30 01:12:19;;;;;;;0.50;0.50;;;;;;;;;;5056381;28;20472;-64
2021/12/30 01:14:47;;;;;;;0.60;0.60;;;;;;;;;;5056405;28;20440;-65
2021/12/30 01:17:22;;;;;;;0.63;0.63;;;;;;;;;;5056303;28;20882;-64
2021/12/30 01:19:51;;;;;;;0.87;0.87;;;;;;;;;;5056647;28;20398;-65
2021/12/30 01:22:24;;;;;;;0.80;0.70;;;;;;;;;;5056269;28;20543;-65
2021/12/30 01:24:51;;;;;;;0.50;0.50;;;;;;;;;;5056287;28;20393;-65
2021/12/30 01:27:18;;;;;;;0.97;0.73;;;;;;;;;;5056195;28;20452;-64
2021/12/30 01:29:44;;;;;;;0.60;0.60;;;;;;;;;;5056338;28;20567;-66
2021/12/30 01:32:10;;;;;;;0.50;0.50;;;;;;;;;;5056373;28;20744;-66
2021/12/30 01:34:36;;;;;;;0.53;0.53;;;;;;;;;;5056055;28;20420;-66
2021/12/30 01:37:04;;;;;;;0.60;0.60;;;;;;;;;;5056291;28;20402;-66
2021/12/30 01:39:31;;;;;;;0.60;0.60;;;;;;;;;;5056046;28;20902;-68
2021/12/30 01:41:58;;;;;;;0.60;0.60;;;;;;;;;;5056212;28;20408;-68
2021/12/30 01:44:24;;;;;;;1.23;0.67;;;;;;;;;;5056133;28;20401;-67
2021/12/30 01:46:51;;;;;;;0.53;0.53;;;;;;;;;;5055850;28;20401;-68
2021/12/30 01:49:17;;;;;;;0.60;0.60;;;;;;;;;;5055998;28;20801;-68
2021/12/30 01:51:44;;;;;;;0.40;0.40;;;;;;;;;;5055727;28;20440;-68
2021/12/30 01:54:11;;;;;;;0.50;0.50;;;;;;;;;;5055777;28;20759;-66
2021/12/30 01:56:37;;;;;;;0.97;0.50;;;;;;;;;;5055678;28;20414;-67
2021/12/30 01:59:03;;;;;;;0.53;0.40;;;;;;;;;;5055610;28;20808;-65
2021/12/30 02:01:30;;;;;;;0.53;0.53;;;;;;;;;;5055741;28;20408;-65
2021/12/30 02:03:55;;;;;;;0.53;0.53;;;;;;;;;;5055756;28;20416;-65
2021/12/30 02:06:22;;;;;;;0.40;0.40;;;;;;;;;;5055496;28;20421;-64
2021/12/30 02:08:48;;;;;;;1.37;0.53;;;;;;;;;;5055632;28;20505;-65
2021/12/30 02:11:14;;;;;;;0.40;0.40;;;;;;;;;;5055230;28;20489;-67
2021/12/30 02:13:40;;;;;;;0.50;0.50;;;;;;;;;;5055192;28;20401;-65
2021/12/30 02:16:06;;;;;;;0.80;0.40;;;;;;;;;;5055251;28;20838;-67
2021/12/30 02:18:33;;;;;;;0.50;0.50;;;;;;;;;;5055242;28;20417;-64
2021/12/30 02:21:00;;;;;;;0.53;0.53;;;;;;;;;;5055239;28;20442;-67
2021/12/30 02:23:28;;;;;;;0.60;0.50;;;;;;;;;;5055233;28;20800;-66
2021/12/30 02:25:56;;;;;;;0.50;0.50;;;;;;;;;;5055099;28;20408;-67
2021/12/30 02:28:24;;;;;;;0.77;0.40;;;;;;;;;;5055127;28;20405;-65
2021/12/30 02:30:51;;;;;;;0.77;0.50;;;;;;;;;;5055191;28;20476;-65
2021/12/30 02:33:17;;;;;;;0.40;0.40;;;;;;;;;;5054968;28;20884;-69
2021/12/30 02:35:43;;;;;;;1.47;0.50;;;;;;;;;;5055220;28;20419;-68
2021/12/30 02:38:10;;;;;;;1.27;0.40;;;;;;;;;;5054875;28;20880;-67
2021/12/30 02:40:41;;;;;;;0.60;0.50;;;;;;;;;;5054780;28;20408;-68
2021/12/30 02:43:10;;;;;;;0.30;0.30;;;;;;;;;;5055082;28;20829;-67
2021/12/30 02:45:36;;;;;;;0.50;0.50;;;;;;;;;;5054736;28;20401;-69
2021/12/30 02:48:02;;;;;;;0.40;0.40;;;;;;;;;;5054660;28;20400;-66
2021/12/30 02:50:29;;;;;;;0.40;0.40;;;;;;;;;;5054505;28;20495;-65
2021/12/30 02:52:55;;;;;;;0.50;0.50;;;;;;;;;;5054551;28;20402;-64
2021/12/30 02:55:21;;;;;;;0.40;0.40;;;;;;;;;;5054636;28;20475;-65
2021/12/30 02:57:47;;;;;;;0.50;0.40;;;;;;;;;;5054463;28;20425;-65
2021/12/30 03:00:13;;;;;;;0.40;0.40;;;;;;;;;;5054675;28;20413;-66
2021/12/30 03:02:39;;;;;;;0.50;0.50;;;;;;;;;;5054407;28;20467;-65
2021/12/30 03:05:07;;;;;;;0.40;0.40;;;;;;;;;;5054432;28;20414;-65
2021/12/30 03:07:33;;;;;;;1.27;0.57;;;;;;;;;;5054309;28;20877;-66
2021/12/30 03:09:59;;;;;;;0.40;0.40;;;;;;;;;;5054312;28;20464;-63
2021/12/30 03:12:25;;;;;;;0.40;0.40;;;;;;;;;;5054111;28;20470;-65
2021/12/30 03:14:51;;;;;;;2.93;0.50;;;;;;;;;;5054386;28;20416;-65
2021/12/30 03:17:17;;;;;;;0.50;0.50;;;;;;;;;;5054415;28;20413;-64
2021/12/30 03:19:44;;;;;;;0.40;0.40;;;;;;;;;;5054126;28;20436;-66
2021/12/30 03:22:10;;;;;;;0.60;0.60;;;;;;;;;;5054071;28;20400;-66
2021/12/30 03:24:36;;;;;;;0.40;0.40;;;;;;;;;;5053758;28;20413;-63
2021/12/30 03:27:03;;;;;;;0.37;0.37;;;;;;;;;;5054080;28;20404;-64
2021/12/30 03:29:29;;;;;;;1.23;0.40;;;;;;;;;;5053983;28;20465;-63
2021/12/30 03:31:55;;;;;;;1.73;0.60;;;;;;;;;;5053950;28;20390;-65
2021/12/30 03:34:21;;;;;;;0.50;0.50;;;;;;;;;;5053998;28;20408;-64
2021/12/30 03:36:47;;;;;;;0.40;0.40;;;;;;;;;;5053780;28;20807;-67
2021/12/30 03:39:14;;;;;;;0.53;0.50;;;;;;;;;;5054052;28;20443;-64
2021/12/30 03:41:40;;;;;;;0.50;0.50;;;;;;;;;;5053779;28;20381;-64
2021/12/30 03:44:06;;;;;;;0.67;0.37;;;;;;;;;;5053749;28;20414;-63
2021/12/30 03:46:32;;;;;;;0.50;0.50;;;;;;;;;;5053647;28;20470;-63
2021/12/30 03:49:00;;;;;;;0.40;0.40;;;;;;;;;;5053916;28;20803;-64
2021/12/30 03:51:26;;;;;;;2.67;0.60;;;;;;;;;;5053535;28;20457;-63
2021/12/30 03:53:54;;;;;;;0.40;0.40;;;;;;;;;;5053508;28;20764;-65
2021/12/30 03:56:21;;;;;;;0.40;0.40;;;;;;;;;;5053503;28;20767;-64
2021/12/30 03:58:48;;;;;;;0.40;0.40;;;;;;;;;;5053542;28;20402;-64
2021/12/30 04:01:15;;;;;;;0.30;0.30;;;;;;;;;;5053524;28;20402;-64
2021/12/30 04:03:41;;;;;;;5.20;0.40;;;;;;;;;;5053435;28;20405;-64
2021/12/30 04:06:07;;;;;;;0.40;0.40;;;;;;;;;;5053397;28;20405;-63
2021/12/30 04:08:34;;;;;;;0.50;0.50;;;;;;;;;;5053278;28;20504;-65
2021/12/30 04:11:00;;;;;;;0.43;0.40;;;;;;;;;;5053223;28;20770;-63
2021/12/30 04:13:26;;;;;;;0.30;0.30;;;;;;;;;;5053402;28;20419;-64
2021/12/30 04:15:53;;;;;;;0.40;0.40;;;;;;;;;;5053281;28;20899;-64
2021/12/30 04:18:19;;;;;;;0.43;0.43;;;;;;;;;;5053306;28;20407;-64
2021/12/30 04:20:46;;;;;;;1.57;0.30;;;;;;;;;;5053285;28;20470;-65
2021/12/30 04:23:12;;;;;;;0.40;0.40;;;;;;;;;;5053179;28;20485;-67
2021/12/30 04:25:38;;;;;;;1.27;0.50;;;;;;;;;;5053292;28;20460;-68
2021/12/30 04:28:04;;;;;;;0.50;0.50;;;;;;;;;;5053261;28;20404;-63
2021/12/30 04:30:30;;;;;;;1.50;0.50;;;;;;;;;;5053220;28;20863;-65
2021/12/30 04:32:56;;;;;;;0.50;0.50;;;;;;;;;;5053185;28;20866;-65
2021/12/30 04:35:22;;;;;;;1.30;0.50;;;;;;;;;;5053137;28;20428;-64
2021/12/30 04:37:48;;;;;;;0.40;0.40;;;;;;;;;;5056035;28;20404;-65
2021/12/30 04:40:14;;;;;;;0.40;0.40;;;;;;;;;;5057067;28;20406;-64
2021/12/30 04:42:41;;;;;;;0.53;0.40;;;;;;;;;;5057300;28;20437;-64
2021/12/30 04:45:08;;;;;;;0.60;0.40;;;;;;;;;;5057042;28;20432;-63
2021/12/30 04:47:34;;;;;;;0.47;0.47;;;;;;;;;;5056897;28;20425;-64
2021/12/30 04:50:00;;;;;;;1.07;0.40;;;;;;;;;;5057072;28;20476;-63
2021/12/30 04:52:26;;;;;;;0.50;0.50;;;;;;;;;;5057079;28;20500;-64
2021/12/30 04:54:52;;;;;;;0.40;0.40;;;;;;;;;;5056853;28;20397;-65
2021/12/30 04:57:18;;;;;;;0.30;0.30;;;;;;;;;;5056814;28;20400;-63
2021/12/30 04:59:44;;;;;;;0.40;0.40;;;;;;;;;;5056706;28;20939;-64
2021/12/30 05:02:11;;;;;;;2.30;0.40;;;;;;;;;;5056695;28;20396;-65
2021/12/30 05:04:37;;;;;;;0.70;0.43;;;;;;;;;;5056590;28;20766;-65
2021/12/30 05:07:03;;;;;;;0.40;0.40;;;;;;;;;;5056612;28;20402;-65
2021/12/30 05:09:31;;;;;;;0.50;0.40;;;;;;;;;;5056786;28;20461;-67
2021/12/30 05:11:57;;;;;;;0.40;0.40;;;;;;;;;;5056464;28;20467;-65
2021/12/30 05:14:23;;;;;;;0.30;0.30;;;;;;;;;;5056470;28;20451;-65
2021/12/30 05:16:51;;;;;;;0.40;0.40;;;;;;;;;;5056496;28;20404;-68
2021/12/30 05:19:18;;;;;;;0.37;0.37;;;;;;;;;;5056349;28;20458;-63
2021/12/30 05:21:44;;;;;;;1.17;0.50;;;;;;;;;;5056551;28;20466;-64
2021/12/30 05:24:10;;;;;;;1.00;0.40;;;;;;;;;;5056280;28;20783;-64
2021/12/30 05:26:36;;;;;;;0.80;0.33;;;;;;;;;;5056307;28;20496;-64
2021/12/30 05:29:03;;;;;;;0.40;0.40;;;;;;;;;;5055159;28;20406;-64
2021/12/30 05:31:29;;;;;;;1.23;0.40;;;;;;;;;;5056434;28;20413;-64
2021/12/30 05:33:55;;;;;;;0.40;0.40;;;;;;;;;;5056125;28;20404;-64
2021/12/30 05:36:22;;;;;;;0.77;0.40;;;;;;;;;;5056037;28;20417;-65
2021/12/30 05:38:48;;;;;;;0.30;0.30;;;;;;;;;;5056074;28;20413;-63
2021/12/30 05:41:14;;;;;;;0.40;0.40;;;;;;;;;;5056295;28;20519;-64
2021/12/30 05:43:40;;;;;;;0.40;0.40;;;;;;;;;;5056010;28;20899;-65
2021/12/30 05:46:06;;;;;;;0.40;0.40;;;;;;;;;;5056148;28;20413;-62
2021/12/30 05:48:32;;;;;;;0.30;0.30;;;;;;;;;;5055319;28;20540;-63
2021/12/30 05:51:01;;;;;;;0.40;0.40;;;;;;;;;;5055840;28;20549;-65
2021/12/30 05:53:28;;;;;;;0.40;0.40;;;;;;;;;;5055729;28;20407;-66
2021/12/30 05:55:55;;;;;;;0.43;0.43;;;;;;;;;;5055702;28;20958;-66
2021/12/30 05:58:21;;;;;;;0.30;0.30;;;;;;;;;;5055630;28;20874;-66
2021/12/30 06:00:47;;;;;;;0.40;0.40;;;;;;;;;;5055591;28;20414;-66
2021/12/30 06:03:14;;;;;;;0.40;0.40;;;;;;;;;;5055535;28;20402;-66
2021/12/30 06:05:40;;;;;;;0.40;0.40;;;;;;;;;;5055486;28;20460;-66
2021/12/30 06:08:06;;;;;;;0.40;0.40;;;;;;;;;;5055451;28;20409;-63
2021/12/30 06:10:32;;;;;;;0.30;0.30;;;;;;;;;;5055280;28;20496;-64
2021/12/30 06:12:58;;;;;;;1.30;0.30;;;;;;;;;;5055406;28;20402;-63
2021/12/30 06:15:24;;;;;;;0.30;0.30;;;;;;;;;;5055318;28;20410;-63
2021/12/30 06:17:50;;;;;;;0.30;0.30;;;;;;;;;;5055266;28;20406;-63
2021/12/30 06:20:16;;;;;;;0.30;0.30;;;;;;;;;;5055310;28;20761;-63
2021/12/30 06:22:44;;;;;;;0.40;0.40;;;;;;;;;;5055224;28;20414;-63
2021/12/30 06:25:11;;;;;;;0.30;0.30;;;;;;;;;;5055308;28;20420;-65
2021/12/30 06:27:37;;;;;;;0.30;0.30;;;;;;;;;;5055075;28;20555;-65
2021/12/30 06:30:04;;;;;;;0.40;0.40;;;;;;;;;;5054964;28;20453;-65
2021/12/30 06:32:30;;;;;;;0.33;0.33;;;;;;;;;;5055042;28;20398;-64
2021/12/30 06:34:56;;;;;;;0.30;0.30;;;;;;;;;;5054919;28;20409;-65
2021/12/30 06:37:22;;;;;;;1.03;0.40;;;;;;;;;;5054918;28;20424;-67
2021/12/30 06:39:48;;;;;;;0.67;0.67;;;;;;;;;;5054948;28;20415;-69
2021/12/30 06:42:14;;;;;;;0.30;0.30;;;;;;;;;;5054927;28;20389;-69
2021/12/30 06:44:40;;;;;;;0.40;0.30;;;;;;;;;;5054969;28;20554;-68
2021/12/30 06:47:06;;;;;;;0.40;0.40;;;;;;;;;;5054801;28;20854;-69
2021/12/30 06:49:37;;;;;;;0.30;0.30;;;;;;;;;;5054548;28;20468;-68
2021/12/30 06:52:04;;;;;;;0.30;0.30;;;;;;;;;;5054663;28;20416;-68
2021/12/30 06:54:30;;;;;;;1.33;0.40;;;;;;;;;;5054684;28;20450;-69
2021/12/30 06:56:59;;;;;;;1.57;0.40;;;;;;;;;;5054595;28;20410;-68
2021/12/30 06:59:25;;;;;;;0.40;0.40;;;;;;;;;;5053644;28;20386;-69
2021/12/30 07:01:51;;;;;;;0.43;0.30;;;;;;;;;;5054496;28;20500;-65
2021/12/30 07:04:17;;;;;;;0.50;0.50;;;;;;;;;;5054467;28;20395;-65
2021/12/30 07:06:43;;;;;;;0.30;0.30;;;;;;;;;;5054370;28;20455;-65
2021/12/30 07:09:09;;;;;;;0.30;0.30;;;;;;;;;;5054234;28;20758;-65
2021/12/30 07:11:35;;;;;;;0.30;0.30;;;;;;;;;;5054182;28;20472;-65
2021/12/30 07:14:01;;;;;;;0.60;0.40;;;;;;;;;;5054214;28;20393;-65
2021/12/30 07:16:27;;;;;;;0.30;0.30;;;;;;;;;;5054215;28;20413;-65
2021/12/30 07:18:53;;;;;;;0.30;0.30;;;;;;;;;;5054113;28;20402;-62
2021/12/30 07:21:20;;;;;;;0.30;0.30;;;;;;;;;;5054320;28;20404;-65
2021/12/30 07:23:46;;;;;;;0.30;0.30;;;;;;;;;;5053953;28;20401;-64
2021/12/30 07:26:12;;;;;;;0.30;0.30;;;;;;;;;;5053942;28;20409;-64
2021/12/30 07:28:38;;;;;;;0.40;0.40;;;;;;;;;;5053923;28;20769;-62
2021/12/30 07:31:05;;;;;;;0.40;0.40;;;;;;;;;;5053699;28;20980;-63
2021/12/30 07:33:31;;;;;;;0.30;0.30;;;;;;;;;;5053865;28;20401;-64
2021/12/30 07:35:57;;;;;;;0.40;0.40;;;;;;;;;;5053830;28;20397;-62
2021/12/30 07:38:23;;;;;;;0.40;0.40;;;;;;;;;;5053637;28;20405;-63
2021/12/30 07:40:49;;;;;;;0.33;0.33;;;;;;;;;;5053788;28;20865;-63
2021/12/30 07:43:15;;;;;;;0.33;0.33;;;;;;;;;;5053691;28;20467;-63
2021/12/30 07:45:41;;;;;;;0.60;0.37;;;;;;;;;;5053681;28;20438;-63
2021/12/30 07:48:07;;;;;;;0.40;0.40;;;;;;;;;;5053598;28;20406;-62
2021/12/30 07:50:33;;;;;;;1.13;0.30;;;;;;;;;;5053456;28;20526;-63
2021/12/30 07:52:59;;;;;;;0.60;0.33;;;;;;;;;;5053404;28;20402;-63
2021/12/30 07:55:25;;;;;;;0.40;0.40;;;;;;;;;;5053573;28;20437;-63
2021/12/30 07:57:55;;;;;;;0.30;0.30;;;;;;;;;;5053515;28;20855;-63
2021/12/30 08:00:21;;;;;;;0.40;0.40;;;;;;;;;;5053485;28;20405;-63
2021/12/30 08:02:47;;;;;;;0.30;0.30;;;;;;;;;;5053410;28;20750;-62
2021/12/30 08:05:15;;;;;;;0.30;0.30;;;;;;;;;;5053381;28;20401;-62
2021/12/30 08:07:42;;;;;;;0.30;0.30;;;;;;;;;;5053575;28;20523;-63
2021/12/30 08:10:12;;;;;;;0.30;0.30;;;;;;;;;;5053329;28;20628;-63
2021/12/30 08:12:39;;;;;;;0.93;0.37;;;;;;;;;;5053305;28;20413;-62
2021/12/30 08:15:06;;;;;;;0.40;0.40;;;;;;;;;;5051953;28;20520;-62
2021/12/30 08:17:32;;;;;;;0.40;0.40;;;;;;;;;;5053514;28;20514;-64
2021/12/30 08:19:58;;;;;;;0.73;0.40;;;;;;;;;;5053265;28;20403;-63
2021/12/30 08:22:24;;;;;;;0.30;0.30;;;;;;;;;;5053167;28;20499;-63
2021/12/30 08:24:50;;;;;;;0.40;0.40;;;;;;;;;;5053258;28;20405;-63
2021/12/30 08:27:16;;;;;;;0.93;0.50;;;;;;;;;;5053192;28;20431;-63
2021/12/30 08:29:42;;;;;;;0.40;0.40;;;;;;;;;;5053145;28;20879;-63
2021/12/30 08:32:11;;;;;;;0.60;0.60;;;;;;;;;;5053068;28;20474;-62
2021/12/30 08:34:37;;;;;;;0.50;0.50;;;;;;;;;;5053042;28;20409;-63
2021/12/30 08:37:03;;;;;;;0.40;0.40;;;;;;;;;;5053042;28;20423;-63
2021/12/30 08:39:29;;;;;;;0.50;0.50;;;;;;;;;;5053056;28;20895;-62
2021/12/30 08:41:56;;;;;;;2.30;0.50;;;;;;;;;;5053272;28;20495;-62
2021/12/30 08:44:24;;;;;;;0.40;0.40;;;;;;;;;;5052995;28;20440;-62
2021/12/30 08:46:50;;;;;;;0.60;0.60;;;;;;;;;;5053123;28;20405;-63
2021/12/30 08:49:16;;;;;;;0.40;0.40;;;;;;;;;;5051591;28;20799;-63
2021/12/30 08:51:42;;;;;;;0.40;0.40;;;;;;;;;;5053259;28;20491;-63
2021/12/30 08:54:08;;;;;;;0.60;0.43;;;;;;;;;;5052947;28;20491;-63
2021/12/30 08:56:34;;;;;;;0.40;0.40;;;;;;;;;;5052926;28;20912;-62
2021/12/30 08:59:00;;;;;;;0.80;0.80;;;;;;;;;;5052977;28;20410;-63
2021/12/30 09:01:27;;;;;;;0.30;0.30;;;;;;;;;;5052823;28;20466;-62
2021/12/30 09:03:53;;;;;;;0.40;0.40;;;;;;;;;;5052828;28;20417;-61
2021/12/30 09:06:19;;;;;;;0.40;0.40;;;;;;;;;;5052846;28;20502;-62
2021/12/30 09:08:45;;;;;;;0.90;0.43;;;;;;;;;;5053087;28;20409;-62
2021/12/30 09:11:12;;;;;;;0.83;0.40;;;;;;;;;;5052695;28;20525;-62
2021/12/30 09:13:37;;;;;;;0.50;0.50;;;;;;;;;;5053002;28;20766;-61
2021/12/30 09:16:04;;;;;;;0.47;0.47;;;;;;;;;;5052682;28;20410;-62
2021/12/30 09:18:30;;;;;;;0.50;0.50;;;;;;;;;;5052971;28;20416;-62
2021/12/30 09:20:56;;;;;;;0.40;0.40;;;;;;;;;;5052776;28;20414;-62
2021/12/30 09:23:22;;;;;;;0.60;0.60;;;;;;;;;;5054527;28;20485;-63
2021/12/30 09:25:48;;;;;;;0.43;0.43;;;;;;;;;;5056500;28;20410;-64
2021/12/30 09:28:14;;;;;;;0.77;0.77;;;;;;;;;;5056198;28;20489;-63
2021/12/30 09:30:42;;;;;;;0.63;0.63;;;;;;;;;;5056369;28;20616;-63
2021/12/30 09:33:08;;;;;;;0.53;0.53;;;;;;;;;;5056006;28;20417;-63
2021/12/30 09:35:34;;;;;;;1.27;1.27;;;;;;;;;;5056375;28;20466;-63
2021/12/30 09:38:00;;;;;;;0.40;0.40;;;;;;;;;;5056048;28;20766;-63
2021/12/30 09:40:27;;;;;;;0.40;0.40;;;;;;;;;;5056098;28;20562;-63
2021/12/30 09:43:00;;;;;;;0.30;0.30;;;;;;;;;;5055962;28;20412;-63
2021/12/30 09:45:27;;;;;;;0.47;0.40;;;;;;;;;;5055949;28;20398;-63
2021/12/30 09:47:54;;;;;;;0.50;0.50;;;;;;;;;;5055826;28;20422;-64
2021/12/30 09:50:22;;;;;;;0.40;0.40;;;;;;;;;;5055720;28;20871;-65
2021/12/30 09:52:48;;;;;;;0.40;0.40;;;;;;;;;;5056031;28;20407;-62
2021/12/30 09:55:14;;;;;;;1.07;0.50;;;;;;;;;;5055984;28;20400;-63
2021/12/30 09:57:41;;;;;;;0.40;0.40;;;;;;;;;;5055631;28;20414;-62
2021/12/30 10:00:08;;;;;;;0.47;0.40;;;;;;;;;;5055570;28;20769;-62
2021/12/30 10:02:34;;;;;;;1.17;0.80;;;;;;;;;;5055755;28;20410;-62
2021/12/30 10:05:08;;;;;;;0.40;0.40;;;;;;;;;;5055900;28;20398;-62
2021/12/30 10:07:35;;;;;;;0.50;0.50;;;;;;;;;;5055658;28;20433;-63
2021/12/30 10:10:03;;;;;;;0.40;0.40;;;;;;;;;;5055144;28;20553;-62
2021/12/30 10:12:39;;;;;;;0.67;0.40;;;;;;;;;;5055156;28;20481;-62
2021/12/30 10:15:06;;;;;;;0.50;0.50;;;;;;;;;;5055350;28;20460;-65
2021/12/30 10:17:32;;;;;;;1.83;0.40;;;;;;;;;;5055242;28;20496;-63
2021/12/30 10:20:17;;;;;;;0.50;0.50;;;;;;;;;;5055552;28;20410;-62
2021/12/30 10:22:43;;;;;;;0.50;0.50;;;;;;;;;;5055400;28;20409;-63
2021/12/30 10:25:44;;;;;;;0.40;0.40;;;;;;;;;;5055104;28;20493;-62
2021/12/30 10:28:18;;;;;;;0.80;0.40;;;;;;;;;;5033021;28;20445;-62
2021/12/30 10:30:44;;;;;;;1.63;0.53;;;;;;;;;;5051719;28;20481;-62
2021/12/30 10:33:11;;;;;;;0.40;0.40;;;;;;;;;;5055167;28;20768;-63
2021/12/30 10:35:37;;;;;;;0.67;0.67;;;;;;;;;;5055048;28;20461;-60
2021/12/30 10:38:08;;;;;;;0.40;0.40;;;;;;;;;;5055088;28;20448;-62
2021/12/30 10:40:36;;;;;;;0.40;0.40;;;;;;;;;;5055117;28;20455;-62
2021/12/30 10:43:28;;;;;;;0.53;0.53;;;;;;;;;;5054865;28;20885;-62
2021/12/30 10:46:09;;;;;;;0.47;0.47;;;;;;;;;;5054696;28;20881;-62
2021/12/30 10:48:44;;;;;;;0.40;0.40;;;;;;;;;;5055003;28;20803;-62
2021/12/30 10:51:18;;;;;;;0.50;0.50;;;;;;;;;;5054559;28;20464;-62
2021/12/30 10:53:45;;;;;;;0.70;0.50;;;;;;;;;;5054878;28;20408;-64
2021/12/30 10:56:23;;;;;;;0.47;0.47;;;;;;;;;;5054577;28;20488;-65
2021/12/30 10:58:50;;;;;;;0.53;0.50;;;;;;;;;;5054496;28;21037;-64
2021/12/30 11:01:20;;;;;;;2.10;0.50;;;;;;;;;;5054710;28;20451;-65
2021/12/30 11:03:59;;;;;;;0.50;0.50;;;;;;;;;;5054585;28;20768;-64
2021/12/30 11:06:25;;;;;;;0.30;0.30;;;;;;;;;;5054590;28;20745;-65
2021/12/30 11:09:05;;;;;;;0.40;0.40;;;;;;;;;;5054568;28;20404;-67
2021/12/30 11:11:31;;;;;;;0.30;0.30;;;;;;;;;;5054150;28;20986;-66
2021/12/30 11:13:59;;;;;;;0.57;0.57;;;;;;;;;;5054120;28;20505;-66
2021/12/30 11:16:25;;;;;;;0.40;0.40;;;;;;;;;;5054244;28;20419;-68
2021/12/30 11:18:51;;;;;;;1.50;0.50;;;;;;;;;;5054041;28;20421;-66
2021/12/30 11:21:44;;;;;;;1.70;0.40;;;;;;;;;;5054413;28;20415;-66
2021/12/30 11:24:11;;;;;;;0.40;0.40;;;;;;;;;;5052979;28;20434;-67
2021/12/30 11:26:37;;;;;;;0.30;0.30;;;;;;;;;;5054015;28;20406;-67
2021/12/30 11:29:04;;;;;;;1.90;0.40;;;;;;;;;;5053901;28;20414;-66
2021/12/30 11:31:31;;;;;;;1.80;0.50;;;;;;;;;;5053924;28;20473;-67
2021/12/30 11:33:57;;;;;;;0.33;0.33;;;;;;;;;;5053858;28;20491;-65
2021/12/30 11:36:24;;;;;;;0.40;0.40;;;;;;;;;;5053828;28;20773;-67
2021/12/30 11:38:50;;;;;;;0.40;0.40;;;;;;;;;;5054070;28;20533;-67
2021/12/30 11:41:17;;;;;;;0.40;0.40;;;;;;;;;;5053669;28;20896;-66
2021/12/30 11:43:44;;;;;;;0.40;0.40;;;;;;;;;;5053741;28;20391;-66
2021/12/30 11:46:29;;;;;;;0.43;0.43;;;;;;;;;;5053218;28;20408;-65
2021/12/30 11:49:01;;;;;;;0.70;0.70;;;;;;;;;;5053640;28;20398;-66
2021/12/30 11:51:40;;;;;;;0.40;0.40;;;;;;;;;;5053646;28;20810;-66
2021/12/30 11:54:25;;;;;;;0.40;0.40;;;;;;;;;;5053688;28;20423;-65
2021/12/30 11:57:10;;;;;;;0.40;0.40;;;;;;;;;;5053533;28;20895;-66
2021/12/30 11:59:39;;;;;;;0.50;0.50;;;;;;;;;;5053498;28;20412;-66
2021/12/30 12:02:25;;;;;;;0.50;0.50;;;;;;;;;;5053515;28;20424;-66
2021/12/30 12:04:51;;;;;;;0.50;0.50;;;;;;;;;;5053396;28;20443;-65
2021/12/30 12:07:17;;;;;;;0.40;0.40;;;;;;;;;;5053439;28;20399;-66
2021/12/30 12:09:43;;;;;;;0.60;0.60;;;;;;;;;;5053549;28;20466;-66
2021/12/30 12:12:13;;;;;;;0.50;0.50;;;;;;;;;;5053171;28;20516;-65
2021/12/30 12:14:41;;;;;;;3.90;0.73;;;;;;;;;;5053308;28;20875;-64
2021/12/30 12:17:08;;;;;;;0.50;0.50;;;;;;;;;;5053291;28;20754;-65
2021/12/30 12:19:40;;;;;;;0.40;0.40;;;;;;;;;;5053255;28;20495;-65
2021/12/30 12:22:10;;;;;;;0.60;0.60;;;;;;;;;;5053180;28;20405;-65
2021/12/30 12:24:37;;;;;;;0.53;0.53;;;;;;;;;;5053347;28;20411;-65
2021/12/30 12:27:12;;;;;;;0.40;0.40;;;;;;;;;;5053182;28;20395;-65
2021/12/30 12:29:44;;;;;;;0.30;0.30;;;;;;;;;;5053117;28;20403;-66
2021/12/30 12:32:12;;;;;;;0.40;0.40;;;;;;;;;;5053142;28;20445;-65
2021/12/30 12:34:40;;;;;;;1.07;0.53;;;;;;;;;;5052037;28;20862;-65
2021/12/30 12:37:26;;;;;;;0.70;0.50;;;;;;;;;;5053031;28;20911;-65
2021/12/30 12:39:57;;;;;;;0.47;0.47;;;;;;;;;;5053063;28;20429;-64
2021/12/30 12:42:43;;;;;;;0.40;0.40;;;;;;;;;;5053147;28;20920;-65
2021/12/30 12:45:32;;;;;;;0.50;0.50;;;;;;;;;;5049026;28;20450;-66
2021/12/30 12:48:31;;;;;;;0.60;0.60;;;;;;;;;;5050084;28;20484;-65
2021/12/30 12:51:00;;;;;;;0.93;0.70;;;;;;;;;;5040969;28;20501;-65
2021/12/30 12:53:28;;;;;;;0.40;0.40;;;;;;;;;;5052871;28;20410;-65
2021/12/30 12:56:02;;;;;;;1.90;0.50;;;;;;;;;;5052915;28;20434;-65
2021/12/30 12:58:30;;;;;;;0.93;0.60;;;;;;;;;;5055213;28;20445;-65
2021/12/30 13:00:56;;;;;;;0.50;0.50;;;;;;;;;;5056671;28;20435;-66
2021/12/30 13:03:23;;;;;;;0.60;0.60;;;;;;;;;;5056653;28;20452;-65
2021/12/30 13:05:59;;;;;;;0.43;0.43;;;;;;;;;;5056677;28;20703;-65
2021/12/30 13:08:25;;;;;;;0.50;0.50;;;;;;;;;;5056793;28;20455;-65
2021/12/30 13:10:52;;;;;;;0.40;0.40;;;;;;;;;;5056388;28;21006;-65
2021/12/30 13:13:34;;;;;;;0.50;0.50;;;;;;;;;;5056559;28;20489;-65
2021/12/30 13:16:01;;;;;;;0.40;0.40;;;;;;;;;;5056681;28;20476;-65
2021/12/30 13:18:30;;;;;;;0.50;0.50;;;;;;;;;;5056346;28;20410;-65
2021/12/30 13:20:56;;;;;;;0.60;0.60;;;;;;;;;;5055080;28;20438;-65
2021/12/30 13:23:26;;;;;;;0.80;0.80;;;;;;;;;;5056238;28;20408;-68
2021/12/30 13:25:58;;;;;;;0.73;0.73;;;;;;;;;;5056192;28;20899;-67
2021/12/30 13:28:24;;;;;;;1.70;0.60;;;;;;;;;;5056453;28;20422;-69
2021/12/30 13:30:50;;;;;;;2.17;0.83;;;;;;;;;;5056229;28;20466;-68
2021/12/30 13:33:16;;;;;;;0.87;0.60;;;;;;;;;;5056100;28;20488;-68
2021/12/30 13:35:43;;;;;;;0.50;0.50;;;;;;;;;;5056425;28;20502;-68
2021/12/30 13:38:10;;;;;;;0.70;0.70;;;;;;;;;;5056317;28;20793;-66
2021/12/30 13:40:40;;;;;;;2.63;0.60;;;;;;;;;;5056018;28;20460;-64
2021/12/30 13:43:11;;;;;;;0.80;0.60;;;;;;;;;;5056157;28;20402;-63
2021/12/30 13:45:46;;;;;;;0.67;0.67;;;;;;;;;;5055878;28;20510;-65
2021/12/30 13:48:19;;;;;;;0.50;0.50;;;;;;;;;;5056054;28;20393;-65
2021/12/30 13:50:49;;;;;;;0.60;0.60;;;;;;;;;;5055761;28;20478;-65
2021/12/30 13:53:16;;;;;;;0.60;0.60;;;;;;;;;;5055808;28;20402;-63
2021/12/30 13:55:52;;;;;;;0.50;0.50;;;;;;;;;;5055945;28;20429;-65
2021/12/30 13:58:25;;;;;;;0.60;0.60;;;;;;;;;;5055641;28;20435;-64
2021/12/30 14:01:11;;;;;;;1.17;0.60;;;;;;;;;;5055573;28;20395;-63
2021/12/30 14:03:42;;;;;;;0.60;0.60;;;;;;;;;;5055739;28;20402;-63
2021/12/30 14:06:11;;;;;;;4.53;0.63;;;;;;;;;;5055586;28;20394;-63
2021/12/30 14:08:38;;;;;;;0.63;0.63;;;;;;;;;;5054868;28;20851;-62
2021/12/30 14:11:05;;;;;;;0.60;0.60;;;;;;;;;;5055121;28;20518;-63
2021/12/30 14:13:35;;;;;;;1.47;0.60;;;;;;;;;;5055372;28;20406;-61
2021/12/30 14:16:03;;;;;;;0.53;0.53;;;;;;;;;;5055515;28;20434;-61
2021/12/30 14:18:30;;;;;;;0.60;0.60;;;;;;;;;;5055537;28;20406;-64
2021/12/30 14:20:56;;;;;;;0.60;0.60;;;;;;;;;;5055547;28;20415;-62
2021/12/30 14:23:32;;;;;;;0.80;0.60;;;;;;;;;;5055198;28;20792;-62
2021/12/30 14:26:08;;;;;;;0.70;0.70;;;;;;;;;;5055180;28;20404;-63
2021/12/30 14:28:34;;;;;;;0.80;0.80;;;;;;;;;;5055102;28;20410;-63
2021/12/30 14:31:00;;;;;;;1.27;0.60;;;;;;;;;;5054943;28;20477;-62
2021/12/30 14:33:28;;;;;;;0.70;0.70;;;;;;;;;;5055028;28;20459;-62
2021/12/30 14:36:13;;;;;;;3.03;0.67;;;;;;;;;;5054962;28;20403;-64
2021/12/30 14:38:39;;;;;;;0.90;0.90;;;;;;;;;;5055161;28;20435;-64
2021/12/30 14:41:16;;;;;;;0.67;0.67;;;;;;;;;;5054840;28;20405;-62
2021/12/30 14:44:02;;;;;;;0.60;0.60;;;;;;;;;;5054819;28;20401;-62
2021/12/30 14:46:28;;;;;;;0.57;0.47;;;;;;;;;;5054947;28;20410;-63
2021/12/30 14:48:59;;;;;;;0.60;0.60;;;;;;;;;;5054636;28;20400;-64